createdAt,value
2023-03-16T00:00:48.342Z,88.70
2023-03-16T00:03:19.404Z,88.05
2023-03-16T00:05:47.677Z,86.60
2023-03-16T00:08:15.216Z,85.63
2023-03-16T00:10:46.596Z,86.53
2023-03-16T00:13:17.636Z,86.67
2023-03-16T00:15:59.085Z,85.28
2023-03-16T00:18:27.981Z,85.39
2023-03-16T00:20:56.760Z,86.34
2023-03-16T00:23:27.176Z,86.00
2023-03-16T00:25:58.734Z,85.73
2023-03-16T00:28:26.467Z,87.13
2023-03-16T00:30:53.147Z,86.60
2023-03-16T00:33:19.542Z,86.82
2023-03-16T00:35:51.328Z,86.31
2023-03-16T00:38:19.143Z,85.63
2023-03-16T00:40:47.053Z,85.63
2023-03-16T00:43:18.584Z,84.56
2023-03-16T00:45:45.423Z,84.98
2023-03-16T00:48:11.991Z,85.20
2023-03-16T00:50:39.551Z,85.88
2023-03-16T00:53:06.290Z,85.97
2023-03-16T00:55:33.420Z,85.11
2023-03-16T00:57:59.850Z,85.27
2023-03-16T01:00:28.325Z,84.87
2023-03-16T01:02:55.043Z,85.40
2023-03-16T01:05:21.476Z,85.77
2023-03-16T01:07:47.879Z,84.56
2023-03-16T01:10:16.464Z,85.10
2023-03-16T01:12:45.273Z,84.65
2023-03-16T01:15:12.004Z,84.06
2023-03-16T01:17:38.452Z,84.88
2023-03-16T01:20:08.319Z,86.23
2023-03-16T01:22:34.740Z,87.28
2023-03-16T01:25:01.749Z,87.79
2023-03-16T01:27:28.134Z,87.14
2023-03-16T01:29:54.708Z,88.12
2023-03-16T01:32:21.138Z,86.48
2023-03-16T01:34:47.577Z,88.01
2023-03-16T01:37:14.701Z,86.64
2023-03-16T01:39:55.434Z,88.01
2023-03-16T01:42:21.826Z,88.58
2023-03-16T01:44:55.186Z,89.03
2023-03-16T01:47:23.804Z,88.54
2023-03-16T01:49:54.942Z,88.68
2023-03-16T01:52:33.247Z,88.73
2023-03-16T01:55:08.559Z,88.38
2023-03-16T01:57:40.221Z,88.45
2023-03-16T02:00:19.864Z,88.27
2023-03-16T02:03:13.753Z,88.40
2023-03-16T02:06:09.814Z,87.88
2023-03-16T02:08:38.863Z,88.78
2023-03-16T02:11:08.371Z,88.17
2023-03-16T02:13:43.530Z,87.59
2023-03-16T02:16:12.254Z,87.98
2023-03-16T02:44:33.647Z,88.04
2023-03-16T02:47:05.629Z,88.35
2023-03-16T02:49:41.970Z,88.55
2023-03-16T02:52:09.021Z,88.90
2023-03-16T02:54:35.605Z,88.90
2023-03-16T02:57:02.346Z,89.15
2023-03-16T02:59:31.101Z,89.58
2023-03-16T03:01:57.708Z,89.48
2023-03-16T03:04:24.699Z,90.14
2023-03-16T03:06:51.800Z,90.71
2023-03-16T03:09:18.888Z,90.71
2023-03-16T03:11:46.826Z,90.57
2023-03-16T03:14:16.817Z,91.07
2023-03-16T03:16:46.884Z,90.30
2023-03-16T03:19:14.109Z,90.34
2023-03-16T03:21:41.531Z,90.23
2023-03-16T03:24:08.928Z,90.10
2023-03-16T03:26:35.366Z,90.84
2023-03-16T03:29:04.895Z,90.66
2023-03-16T03:31:35.096Z,90.59
2023-03-16T03:34:06.426Z,91.08
2023-03-16T03:36:34.969Z,90.82
2023-03-16T03:39:04.957Z,90.96
2023-03-16T03:41:32.920Z,90.58
2023-03-16T03:44:04.177Z,90.15
2023-03-16T03:46:30.949Z,90.24
2023-03-16T03:49:01.998Z,89.55
2023-03-16T03:51:34.198Z,89.76
2023-03-16T03:54:13.772Z,89.58
2023-03-16T03:56:53.518Z,89.29
2023-03-16T03:59:20.836Z,88.32
2023-03-16T04:02:10.327Z,86.62
2023-03-16T04:04:42.687Z,86.04
2023-03-16T04:07:11.571Z,86.13
2023-03-16T04:09:38.928Z,85.24
2023-03-16T04:12:07.767Z,85.85
2023-03-16T04:14:34.268Z,85.28
2023-03-16T04:17:04.755Z,85.09
2023-03-16T04:19:33.536Z,85.55
2023-03-16T04:22:00.328Z,86.53
2023-03-16T04:24:26.968Z,86.27
2023-03-16T04:26:54.419Z,86.54
2023-03-16T04:29:21.399Z,87.14
2023-03-16T04:31:47.984Z,86.62
2023-03-16T04:34:14.899Z,86.22
2023-03-16T04:36:42.103Z,87.04
2023-03-16T04:39:10.347Z,86.34
2023-03-16T04:41:37.361Z,86.67
2023-03-16T04:44:12.684Z,85.50
2023-03-16T04:46:39.753Z,85.25
2023-03-16T04:49:09.651Z,85.19
2023-03-16T04:51:37.781Z,85.08
2023-03-16T04:54:07.612Z,84.69
2023-03-16T04:56:36.104Z,84.67
2023-03-16T04:59:07.706Z,84.13
2023-03-16T05:01:44.711Z,84.29
2023-03-16T05:04:18.889Z,85.28
2023-03-16T05:06:46.189Z,86.18
2023-03-16T05:09:13.957Z,85.49
2023-03-16T05:11:40.552Z,86.17
2023-03-16T05:14:09.900Z,86.18
2023-03-16T05:16:49.573Z,86.46
2023-03-16T05:19:16.242Z,87.48
2023-03-16T05:21:43.409Z,87.36
2023-03-16T05:24:09.845Z,87.58
2023-03-16T05:26:36.279Z,87.73
2023-03-16T05:29:05.465Z,87.57
2023-03-16T05:31:36.256Z,87.83
2023-03-16T05:34:08.196Z,87.51
2023-03-16T05:36:36.188Z,87.05
2023-03-16T05:39:08.648Z,86.74
2023-03-16T05:41:38.461Z,84.99
2023-03-16T05:44:32.082Z,84.01
2023-03-16T05:47:19.501Z,83.61
2023-03-16T05:49:50.623Z,83.52
2023-03-16T05:52:26.676Z,83.73
2023-03-16T05:54:55.139Z,84.15
2023-03-16T05:57:21.670Z,84.24
2023-03-16T05:59:50.872Z,84.07
2023-03-16T06:02:17.376Z,84.57
2023-03-16T06:04:43.851Z,84.38
2023-03-16T06:07:10.692Z,84.78
2023-03-16T06:09:37.230Z,84.87
2023-03-16T06:12:09.888Z,84.93
2023-03-16T06:14:37.142Z,84.80
2023-03-16T06:17:03.609Z,84.65
2023-03-16T06:19:31.639Z,84.43
2023-03-16T06:22:00.287Z,84.98
2023-03-16T06:24:27.708Z,84.99
2023-03-16T06:26:54.268Z,84.94
2023-03-16T06:29:25.403Z,84.20
2023-03-16T06:31:52.512Z,83.46
2023-03-16T06:34:19.345Z,83.63
2023-03-16T06:36:45.798Z,84.22
2023-03-16T06:39:14.316Z,83.83
2023-03-16T06:41:43.012Z,83.31
2023-03-16T06:44:12.128Z,83.39
2023-03-16T06:46:47.204Z,83.11
2023-03-16T06:49:13.609Z,82.69
2023-03-16T06:51:40.073Z,85.69
2023-03-16T06:54:06.543Z,83.24
2023-03-16T06:56:36.878Z,81.02
2023-03-16T06:59:03.751Z,83.18
2023-03-16T07:01:30.313Z,80.89
2023-03-16T07:03:56.766Z,79.34
2023-03-16T07:06:27.461Z,79.33
2023-03-16T07:08:54.271Z,78.40
2023-03-16T07:11:21.885Z,78.45
2023-03-16T07:13:48.268Z,77.68
2023-03-16T07:16:16.124Z,76.31
2023-03-16T07:18:44.359Z,74.89
2023-03-16T07:21:12.197Z,72.39
2023-03-16T07:23:38.754Z,70.98
2023-03-16T07:26:08.239Z,71.12
2023-03-16T07:28:40.675Z,70.14
2023-03-16T07:31:09.394Z,71.28
2023-03-16T07:33:38.831Z,70.67
2023-03-16T07:36:10.515Z,69.91
2023-03-16T07:38:41.649Z,69.61
2023-03-16T07:41:08.909Z,68.66
2023-03-16T07:43:35.769Z,68.20
2023-03-16T07:46:02.291Z,66.82
2023-03-16T07:48:29.426Z,67.78
2023-03-16T07:50:59.864Z,66.76
2023-03-16T07:53:27.320Z,66.22
2023-03-16T07:56:09.596Z,66.77
2023-03-16T07:58:38.254Z,66.84
2023-03-16T08:01:04.751Z,66.11
2023-03-16T08:03:32.000Z,65.32
2023-03-16T08:05:58.776Z,65.46
2023-03-16T08:08:26.399Z,64.80
2023-03-16T08:10:54.141Z,64.26
2023-03-16T08:13:27.293Z,64.15
2023-03-16T08:15:58.754Z,63.82
2023-03-16T08:18:32.178Z,62.51
2023-03-16T08:20:58.697Z,63.04
2023-03-16T08:23:25.918Z,61.87
2023-03-16T08:25:57.100Z,61.14
2023-03-16T08:28:25.937Z,60.96
2023-03-16T08:30:55.434Z,60.39
2023-03-16T08:33:33.172Z,60.60
2023-03-16T08:35:59.984Z,60.73
2023-03-16T08:38:27.012Z,59.02
2023-03-16T08:40:53.712Z,60.42
2023-03-16T08:43:21.890Z,59.44
2023-03-16T08:45:49.163Z,59.21
2023-03-16T08:48:18.326Z,59.19
2023-03-16T08:50:48.984Z,59.58
2023-03-16T08:53:15.403Z,58.92
2023-03-16T08:55:42.226Z,58.24
2023-03-16T08:58:10.424Z,59.04
2023-03-16T09:00:37.429Z,58.10
2023-03-16T09:03:03.886Z,57.60
2023-03-16T09:05:30.620Z,56.34
2023-03-16T09:07:57.216Z,56.41
2023-03-16T09:10:23.641Z,55.75
2023-03-16T09:12:50.537Z,55.27
2023-03-16T09:15:17.018Z,56.24
2023-03-16T09:17:45.001Z,55.54
2023-03-16T09:20:22.188Z,55.75
2023-03-16T09:22:49.403Z,54.29
2023-03-16T09:25:16.066Z,54.50
2023-03-16T09:27:42.669Z,54.78
2023-03-16T09:30:09.706Z,54.51
2023-03-16T09:32:37.358Z,54.58
2023-03-16T09:35:06.193Z,53.86
2023-03-16T09:37:44.585Z,53.91
2023-03-16T09:40:28.705Z,53.39
2023-03-16T09:43:07.103Z,52.27
2023-03-16T09:45:45.522Z,50.80
2023-03-16T09:48:12.244Z,50.64
2023-03-16T09:50:48.699Z,50.07
2023-03-16T09:53:25.288Z,50.06
2023-03-16T09:56:00.471Z,49.65
2023-03-16T09:58:27.229Z,48.30
2023-03-16T10:01:04.933Z,48.32
2023-03-16T10:03:46.720Z,47.47
2023-03-16T10:06:16.853Z,47.98
2023-03-16T10:08:46.395Z,46.72
2023-03-16T10:11:22.232Z,47.41
2023-03-16T10:14:02.506Z,46.55
2023-03-16T10:16:31.830Z,46.55
2023-03-16T10:19:05.794Z,46.32
2023-03-16T10:21:39.823Z,46.17
2023-03-16T10:24:19.439Z,45.76
2023-03-16T10:26:54.384Z,44.74
2023-03-16T10:29:20.799Z,45.49
2023-03-16T10:31:47.440Z,44.39
2023-03-16T10:34:15.212Z,45.90
2023-03-16T10:36:44.445Z,45.47
2023-03-16T10:39:13.077Z,44.09
2023-03-16T10:41:43.378Z,44.38
2023-03-16T10:44:30.139Z,43.45
2023-03-16T10:47:08.187Z,43.88
2023-03-16T10:49:44.421Z,43.64
2023-03-16T10:52:19.748Z,45.04
2023-03-16T10:54:52.715Z,42.42
2023-03-16T10:57:23.810Z,42.13
2023-03-16T10:59:50.874Z,40.51
2023-03-16T11:02:20.696Z,42.18
2023-03-16T11:04:47.918Z,40.81
2023-03-16T11:07:19.013Z,39.67
2023-03-16T11:09:47.201Z,40.28
2023-03-16T11:12:26.413Z,40.70
2023-03-16T11:14:54.058Z,39.66
2023-03-16T11:17:39.930Z,37.16
2023-03-16T11:20:17.491Z,40.67
2023-03-16T11:22:47.155Z,40.11
2023-03-16T11:25:36.627Z,38.80
2023-03-16T11:28:06.411Z,39.37
2023-03-16T11:31:01.336Z,40.88
2023-03-16T11:33:30.986Z,41.66
2023-03-16T11:36:25.340Z,41.45
2023-03-16T11:39:10.915Z,40.60
2023-03-16T11:41:59.599Z,40.14
2023-03-16T11:44:36.157Z,39.91
2023-03-16T11:47:29.012Z,39.82
2023-03-16T11:50:05.615Z,39.62
2023-03-16T11:52:41.937Z,37.54
2023-03-16T11:55:28.726Z,36.95
2023-03-16T11:58:25.031Z,37.51
2023-03-16T12:01:30.765Z,37.76
2023-03-16T12:04:32.489Z,36.73
2023-03-16T12:07:05.996Z,37.83
2023-03-16T12:09:58.156Z,36.68
2023-03-16T12:12:38.871Z,36.91
2023-03-16T12:15:36.703Z,37.81
2023-03-16T12:18:12.593Z,38.32
2023-03-16T12:21:01.604Z,37.21
2023-03-16T12:23:39.403Z,38.47
2023-03-16T12:26:06.408Z,37.55
2023-03-16T12:28:33.516Z,38.59
2023-03-16T12:31:14.518Z,38.50
2023-03-16T12:33:56.391Z,37.60
2023-03-16T12:36:50.970Z,39.43
2023-03-16T12:39:55.285Z,37.49
2023-03-16T12:42:36.194Z,38.17
2023-03-16T12:45:11.037Z,36.56
2023-03-16T12:47:49.476Z,36.20
2023-03-16T12:50:18.983Z,36.85
2023-03-16T12:52:51.769Z,33.41
2023-03-16T12:55:21.010Z,33.91
2023-03-16T12:57:51.489Z,33.26
2023-03-16T13:00:18.485Z,34.92
2023-03-16T13:02:50.998Z,35.17
2023-03-16T13:05:28.397Z,35.82
2023-03-16T13:08:07.998Z,36.85
2023-03-16T13:10:35.098Z,35.71
2023-03-16T13:13:16.107Z,36.38
2023-03-16T13:15:45.097Z,36.29
2023-03-16T13:18:22.486Z,34.82
2023-03-16T13:21:01.686Z,36.52
2023-03-16T13:23:46.492Z,35.96
2023-03-16T13:26:16.579Z,34.04
2023-03-16T13:28:46.032Z,35.25
2023-03-16T13:31:29.525Z,35.39
2023-03-16T13:33:59.839Z,34.67
2023-03-16T13:36:28.749Z,34.49
2023-03-16T13:39:06.777Z,36.36
2023-03-16T13:41:33.187Z,34.24
2023-03-16T13:43:59.661Z,34.09
2023-03-16T13:46:30.684Z,34.34
2023-03-16T13:49:02.852Z,34.09
2023-03-16T13:51:33.151Z,35.20
2023-03-16T13:54:18.883Z,34.38
2023-03-16T13:56:45.371Z,34.73
2023-03-16T13:59:11.922Z,34.86
2023-03-16T14:01:38.434Z,34.73
2023-03-16T14:04:13.668Z,34.69
2023-03-16T14:06:41.302Z,34.86
2023-03-16T14:09:21.590Z,34.60
2023-03-16T14:11:48.778Z,34.58
2023-03-16T14:14:17.320Z,35.92
2023-03-16T14:16:44.570Z,34.90
2023-03-16T14:19:22.586Z,35.62
2023-03-16T14:21:49.686Z,33.56
2023-03-16T14:24:37.055Z,35.63
2023-03-16T14:27:19.292Z,32.61
2023-03-16T14:29:50.434Z,33.40
2023-03-16T14:32:28.099Z,33.84
2023-03-16T14:35:03.949Z,33.77
2023-03-16T14:37:37.320Z,34.08
2023-03-16T14:40:07.387Z,35.39
2023-03-16T14:42:34.734Z,34.54
2023-03-16T14:45:04.781Z,35.40
2023-03-16T14:47:38.587Z,34.06
2023-03-16T14:50:15.275Z,34.20
2023-03-16T14:52:41.710Z,35.64
2023-03-16T14:55:19.693Z,34.05
2023-03-16T14:57:46.418Z,34.85
2023-03-16T15:00:16.609Z,35.37
2023-03-16T15:02:45.811Z,35.59
2023-03-16T15:05:21.749Z,35.76
2023-03-16T15:07:53.654Z,35.17
2023-03-16T15:10:29.824Z,34.79
2023-03-16T15:13:04.322Z,35.36
2023-03-16T15:15:31.560Z,35.11
2023-03-16T15:17:58.377Z,34.61
2023-03-16T15:20:35.912Z,35.88
2023-03-16T15:23:04.876Z,36.07
2023-03-16T15:25:37.261Z,35.46
2023-03-16T15:28:11.960Z,35.37
2023-03-16T15:30:39.046Z,36.37
2023-03-16T15:33:05.902Z,36.65
2023-03-16T15:35:32.596Z,36.08
2023-03-16T15:38:02.978Z,35.65
2023-03-16T15:40:29.905Z,36.22
2023-03-16T15:42:56.922Z,36.28
2023-03-16T15:45:23.900Z,36.56
2023-03-16T15:47:51.720Z,35.89
2023-03-16T15:50:21.716Z,34.66
2023-03-16T15:53:05.829Z,33.90
2023-03-16T15:55:36.608Z,34.89
2023-03-16T15:58:05.176Z,34.62
2023-03-16T16:00:34.842Z,35.41
2023-03-16T16:03:02.886Z,36.21
2023-03-16T16:05:30.865Z,36.24
2023-03-16T16:07:58.366Z,35.92
2023-03-16T16:10:26.815Z,36.42
2023-03-16T16:12:55.156Z,36.15
2023-03-16T16:15:28.925Z,36.00
2023-03-16T16:18:19.184Z,36.36
2023-03-16T16:20:44.090Z,35.96
2023-03-16T16:23:10.525Z,36.04
2023-03-16T16:25:41.290Z,36.49
2023-03-16T16:28:17.470Z,36.34
2023-03-16T16:30:44.484Z,36.48
2023-03-16T16:33:29.907Z,36.24
2023-03-16T16:35:58.950Z,37.01
2023-03-16T16:38:25.835Z,37.21
2023-03-16T16:40:54.122Z,36.73
2023-03-16T16:43:32.615Z,37.28
2023-03-16T16:46:04.982Z,37.33
2023-03-16T16:48:36.603Z,37.59
2023-03-16T16:51:07.179Z,37.81
2023-03-16T16:53:33.640Z,38.04
2023-03-16T16:56:00.294Z,37.99
2023-03-16T16:58:27.067Z,38.58
2023-03-16T17:00:56.527Z,38.45
2023-03-16T17:03:24.675Z,38.63
2023-03-16T17:05:54.403Z,39.01
2023-03-16T17:08:21.019Z,39.06
2023-03-16T17:10:47.867Z,39.37
2023-03-16T17:13:23.322Z,39.77
2023-03-16T17:15:49.747Z,39.79
2023-03-16T17:18:16.822Z,40.19
2023-03-16T17:20:43.232Z,40.15
2023-03-16T17:23:34.516Z,40.04
2023-03-16T17:26:02.938Z,40.73
2023-03-16T17:28:35.112Z,40.34
2023-03-16T17:31:01.556Z,40.76
2023-03-16T17:33:28.364Z,40.89
2023-03-16T17:35:55.105Z,41.04
2023-03-16T17:38:24.299Z,41.05
2023-03-16T17:40:52.790Z,41.63
2023-03-16T17:43:22.429Z,42.01
2023-03-16T17:45:51.648Z,41.60
2023-03-16T17:48:20.844Z,41.84
2023-03-16T17:50:48.601Z,41.67
2023-03-16T17:53:19.967Z,41.70
2023-03-16T17:55:47.063Z,41.41
2023-03-16T17:58:30.283Z,41.87
2023-03-16T18:01:09.571Z,41.94
2023-03-16T18:03:36.088Z,42.05
2023-03-16T18:06:02.506Z,41.42
2023-03-16T18:08:33.205Z,42.26
2023-03-16T18:11:02.531Z,41.72
2023-03-16T18:13:33.378Z,42.09
2023-03-16T18:16:00.823Z,41.23
2023-03-16T18:18:30.072Z,41.53
2023-03-16T18:20:57.636Z,41.78
2023-03-16T18:23:33.450Z,41.60
2023-03-16T18:26:06.988Z,41.82
2023-03-16T18:28:35.010Z,41.86
2023-03-16T18:31:03.633Z,41.71
2023-03-16T18:34:11.431Z,41.98
2023-03-16T18:36:37.997Z,41.29
2023-03-16T18:39:17.052Z,42.27
2023-03-16T18:41:44.657Z,41.90
2023-03-16T18:44:20.288Z,41.92
2023-03-16T18:46:48.442Z,42.01
2023-03-16T18:49:23.154Z,42.05
2023-03-16T18:51:53.274Z,42.04
2023-03-16T18:54:31.157Z,41.58
2023-03-16T18:56:58.891Z,42.10
2023-03-16T18:59:25.753Z,41.50
2023-03-16T19:01:53.248Z,41.66
2023-03-16T19:04:29.257Z,42.20
2023-03-16T19:06:56.732Z,42.18
2023-03-16T19:09:32.409Z,42.40
2023-03-16T19:11:59.406Z,42.81
2023-03-16T19:14:30.779Z,42.76
2023-03-16T19:16:57.168Z,42.09
2023-03-16T19:19:24.374Z,42.65
2023-03-16T19:21:57.169Z,42.51
2023-03-16T19:24:27.368Z,42.69
2023-03-16T19:26:54.446Z,42.93
2023-03-16T19:29:29.575Z,42.48
2023-03-16T19:31:57.160Z,43.07
2023-03-16T19:34:23.901Z,43.46
2023-03-16T19:36:50.972Z,42.92
2023-03-16T19:39:17.445Z,42.95
2023-03-16T19:41:47.532Z,43.12
2023-03-16T19:44:17.833Z,43.40
2023-03-16T19:46:45.164Z,43.73
2023-03-16T19:49:22.653Z,44.17
2023-03-16T19:51:53.806Z,44.48
2023-03-16T19:54:24.600Z,44.18
2023-03-16T19:56:52.524Z,45.04
2023-03-16T19:59:20.072Z,44.42
2023-03-16T20:01:47.038Z,45.10
2023-03-16T20:04:20.048Z,45.41
2023-03-16T20:06:49.365Z,45.39
2023-03-16T20:09:16.936Z,45.73
2023-03-16T20:11:43.793Z,45.89
2023-03-16T20:14:29.039Z,46.34
2023-03-16T20:16:55.943Z,46.77
2023-03-16T20:19:23.071Z,46.03
2023-03-16T20:21:49.581Z,47.07
2023-03-16T20:24:18.129Z,47.33
2023-03-16T20:26:46.294Z,47.21
2023-03-16T20:29:29.366Z,47.34
2023-03-16T20:31:56.124Z,47.54
2023-03-16T20:34:28.451Z,47.58
2023-03-16T20:36:55.784Z,47.77
2023-03-16T20:39:22.547Z,47.95
2023-03-16T20:41:50.380Z,48.65
2023-03-16T20:44:21.268Z,48.43
2023-03-16T20:46:47.781Z,48.60
2023-03-16T20:49:23.613Z,49.03
2023-03-16T20:51:50.695Z,48.81
2023-03-16T20:54:17.705Z,48.96
2023-03-16T20:56:44.408Z,49.67
2023-03-16T20:59:20.314Z,49.61
2023-03-16T21:01:47.918Z,49.74
2023-03-16T21:04:23.533Z,49.67
2023-03-16T21:06:51.008Z,49.89
2023-03-16T21:09:18.723Z,50.38
2023-03-16T21:11:46.303Z,50.52
2023-03-16T21:14:22.201Z,50.29
2023-03-16T21:16:49.390Z,50.32
2023-03-16T21:19:21.550Z,50.40
2023-03-16T21:21:48.322Z,50.80
2023-03-16T21:24:14.925Z,50.39
2023-03-16T21:26:43.861Z,50.81
2023-03-16T21:29:16.111Z,51.47
2023-03-16T21:31:42.952Z,51.40
2023-03-16T21:34:23.707Z,51.36
2023-03-16T21:36:50.412Z,51.58
2023-03-16T21:39:22.355Z,51.49
2023-03-16T21:41:50.574Z,52.16
2023-03-16T21:44:17.295Z,51.69
2023-03-16T21:46:43.831Z,51.84
2023-03-16T21:49:12.000Z,52.23
2023-03-16T21:51:38.400Z,52.75
2023-03-16T21:54:07.880Z,52.96
2023-03-16T21:56:36.032Z,52.76
2023-03-16T21:59:02.571Z,52.61
2023-03-16T22:01:31.467Z,53.48
2023-03-16T22:04:02.758Z,53.51
2023-03-16T22:06:30.366Z,53.67
2023-03-16T22:09:00.306Z,53.61
2023-03-16T22:11:28.812Z,53.51
2023-03-16T22:13:56.932Z,53.79
2023-03-16T22:16:26.331Z,54.64
2023-03-16T22:18:56.309Z,54.69
2023-03-16T22:21:32.711Z,55.24
2023-03-16T22:23:59.840Z,55.11
2023-03-16T22:26:27.699Z,55.52
2023-03-16T22:28:56.164Z,55.30
2023-03-16T22:31:28.900Z,55.52
2023-03-16T22:33:55.479Z,55.76
2023-03-16T22:36:22.856Z,55.73
2023-03-16T22:38:56.817Z,56.35
2023-03-16T22:41:23.555Z,56.58
2023-03-16T22:43:50.155Z,57.12
2023-03-16T22:46:23.511Z,57.09
2023-03-16T22:48:51.474Z,57.08
2023-03-16T22:51:26.590Z,57.21
2023-03-16T22:53:56.949Z,57.40
2023-03-16T22:56:24.318Z,58.22
2023-03-16T22:59:07.785Z,58.01
2023-03-16T23:01:34.240Z,57.48
2023-03-16T23:04:01.793Z,58.10
2023-03-16T23:06:31.379Z,58.10
2023-03-16T23:08:58.140Z,58.02
2023-03-16T23:11:28.564Z,58.78
2023-03-16T23:13:55.430Z,58.41
2023-03-16T23:16:28.300Z,58.39
2023-03-16T23:18:55.413Z,59.24
2023-03-16T23:21:23.751Z,58.94
2023-03-16T23:24:03.149Z,59.54
2023-03-16T23:26:31.683Z,59.16
2023-03-16T23:28:58.609Z,58.90
2023-03-16T23:31:27.009Z,59.79
2023-03-16T23:33:53.413Z,59.43
2023-03-16T23:36:22.512Z,59.90
2023-03-16T23:38:50.378Z,60.07
2023-03-16T23:41:21.677Z,59.10
2023-03-16T23:43:48.918Z,59.32
2023-03-16T23:46:18.464Z,59.91
2023-03-16T23:48:47.276Z,59.34
2023-03-16T23:51:27.690Z,60.09
2023-03-16T23:53:54.499Z,59.48
2023-03-16T23:56:22.499Z,60.48
2023-03-16T23:58:49.011Z,60.78
